< < Back
Terminal Aerodrome Forecast


Current Version              Previous Versions:   1  2  3  4  5  6  7  8  9  

Terminal Aerodrome Forecast

411
FTUS44 KOHX 012300 RRA
TAFCSV
TAF
KCSV 012340Z 0200/0224 18005KT 3SM -RA BR OVC003
     FM020200 18003KT 2SM -DZ BR OVC003
     FM020400 30006KT 1SM -DZ BR OVC001
     FM021000 36006KT 2SM -DZ BR OVC001
     FM021200 04007KT 2SM -FZDZ BR OVC001
     FM021500 03006KT 4SM -SN BR OVC003
     FM021800 04005KT P6SM OVC015=



Latest METAR

925
SAUS70 KWBC 020400 RRC
MTRCSV
METAR KCSV 020353Z AUTO 21003KT 1 3/4SM BR OVC003 07/07 A3031 RMK AO2
SLP264 T00720067


USA.gov is the U.S. government's official web portal to all federal, state and local government web resources and services.